Terminal Aerodrome Forecast
Issued by NWS

Home | Current Version | Previous Version | Text Only | Print | Product List | Glossary On
Versions: 1 2 3 4 5 6 7 8 9 10 11 12 13 14
000
FTUS44 KLZK 260700 AAA
TAFHOT
TAF AMD
KHOT 260758Z 2608/2706 00000KT 4SM BR SKC
      TEMPO 2609/2613 2SM BR BKN005
     FM261500 22008KT P6SM SKC
     FM270000 19004KT P6SM SKC=

USA.gov is the U.S. government's official web portal to all federal, state and local government web resources and services.